Nazareth, Pennsylvania
Current Conditions -  °F | °C
As of 11:51 AM on Friday 24 Oct 2014 (Local Time) from KABE Reporting Station
Clear Clear  
Wind Chill: 63°   Ceiling: Unl
Heat Index: 63°   Visibility: 10mi
Dew Point: 42°   Wind: 23mph
Humidity: 46%   Direction: 340°NNW
Pressure: 29.86"   Gusts: 33mph
Location:  40.74°N, 75.31°W
Report Text: KABE 241551Z 34020G29KT 10SM CLR 17/06 A2986 RMK AO2 PK WND 35029/1551 SLP112 T01720056
Loading
Personal Weather Stations






























Interactive Weather Map
Tropical Storm Tracking
New forecast layout! Learn more

10-Day Weather Forecast

Advertisements
Track Severe Weather on mobile